Time;durP1;ratioP1;P1;durP2;ratioP2;P2;SDS_P1;SDS_P2;PMS_P1;PMS_P2;Temp;Humidity;BMP_temperature;BMP_pressure;BME280_temperature;BME280_humidity;BME280_pressure;Samples;Min_cycle;Max_cycle;Signal;HPM_P1;HPM_P2
2021/04/26 00:02:23;;;;;;;10.57;7.43;;;5.10;99.90;;;;;;5074543;28;20591;-70
2021/04/26 00:04:48;;;;;;;11.53;6.70;;;5.10;99.90;;;;;;5073774;28;20188;-70
2021/04/26 00:07:14;;;;;;;9.00;7.63;;;5.10;99.90;;;;;;5073831;28;20234;-70
2021/04/26 00:09:39;;;;;;;9.40;7.40;;;5.00;99.90;;;;;;5073083;28;20215;-70
2021/04/26 00:12:05;;;;;;;7.97;7.00;;;5.00;99.90;;;;;;5073721;28;20167;-70
2021/04/26 00:14:31;;;;;;;11.90;8.10;;;5.00;99.90;;;;;;5073703;28;20173;-70
2021/04/26 00:16:56;;;;;;;10.30;7.60;;;5.00;99.90;;;;;;5074134;28;20433;-70
2021/04/26 00:19:22;;;;;;;10.53;7.87;;;4.90;99.90;;;;;;5074148;28;20175;-70
2021/04/26 00:21:48;;;;;;;9.70;8.67;;;5.00;99.90;;;;;;5073399;28;20164;-70
2021/04/26 00:24:13;;;;;;;10.90;7.50;;;5.00;99.90;;;;;;5075221;28;20212;-70
2021/04/26 00:26:39;;;;;;;12.40;7.50;;;4.90;99.90;;;;;;5093766;28;20190;-70
2021/04/26 00:29:04;;;;;;;9.83;6.77;;;4.90;99.90;;;;;;5093477;28;20159;-70
2021/04/26 00:31:30;;;;;;;7.40;6.70;;;4.90;99.90;;;;;;5093918;28;20620;-70
2021/04/26 00:33:55;;;;;;;12.03;6.90;;;4.90;99.90;;;;;;5093660;28;20186;-70
2021/04/26 00:36:21;;;;;;;8.50;6.80;;;4.80;99.90;;;;;;5091183;28;20190;-70
2021/04/26 00:38:46;;;;;;;9.47;7.83;;;4.80;99.90;;;;;;5073301;28;20212;-69
2021/04/26 00:41:12;;;;;;;10.90;6.63;;;4.80;99.90;;;;;;5073183;28;20179;-70
2021/04/26 00:43:37;;;;;;;15.67;7.13;;;4.80;99.90;;;;;;5073080;28;20165;-70
2021/04/26 00:46:03;;;;;;;12.53;6.90;;;4.70;99.90;;;;;;5073423;28;20183;-70
2021/04/26 00:48:29;;;;;;;7.67;6.87;;;4.70;99.90;;;;;;5073196;28;20152;-70
2021/04/26 00:50:54;;;;;;;13.43;7.27;;;4.60;99.90;;;;;;5073185;28;20209;-70
2021/04/26 00:53:20;;;;;;;11.30;6.73;;;4.60;99.90;;;;;;5073632;28;20621;-70
2021/04/26 00:55:47;;;;;;;8.70;6.20;;;4.50;99.90;;;;;;5072867;28;20220;-70
2021/04/26 00:58:12;;;;;;;11.43;7.33;;;4.50;99.90;;;;;;5072906;28;20409;-70
2021/04/26 01:00:38;;;;;;;7.67;6.87;;;4.50;99.90;;;;;;5073353;28;20394;-70
2021/04/26 01:03:04;;;;;;;12.07;6.90;;;4.40;99.90;;;;;;5072664;28;20206;-70
2021/04/26 01:05:32;;;;;;;6.77;6.00;;;4.40;99.90;;;;;;5072922;28;20276;-70
2021/04/26 01:07:58;;;;;;;8.13;6.43;;;4.40;99.90;;;;;;5072939;28;20395;-70
2021/04/26 01:10:27;;;;;;;8.03;6.90;;;4.30;99.90;;;;;;5073323;28;20885;-70
2021/04/26 01:15:52;;;;;;;11.27;6.10;;;4.30;99.90;;;;;;5110926;27;20511;-71
2021/04/26 01:26:30;;;;;;;14.33;7.27;;;4.30;99.90;;;;;;5110587;27;20517;-71
2021/04/26 01:29:23;;;;;;;9.90;7.20;;;4.20;99.90;;;;;;5094207;28;20807;-71
2021/04/26 01:34:37;;;;;;;8.23;7.53;;;4.20;99.90;;;;;;5110815;27;20493;-70
2021/04/26 01:37:04;;;;;;;12.60;8.33;;;4.10;99.90;;;;;;5110761;28;20376;-70
2021/04/26 01:39:31;;;;;;;14.73;8.60;;;4.10;99.90;;;;;;5110681;28;20376;-70
2021/04/26 01:41:57;;;;;;;9.60;7.77;;;4.10;99.90;;;;;;5110654;28;20473;-70
2021/04/26 01:44:24;;;;;;;8.00;7.20;;;4.10;99.90;;;;;;5108249;28;20404;-70
2021/04/26 01:46:50;;;;;;;8.33;7.50;;;4.10;99.90;;;;;;5090258;28;20397;-70
2021/04/26 01:49:18;;;;;;;10.57;7.37;;;4.10;99.90;;;;;;5090104;28;20393;-70
2021/04/26 01:51:46;;;;;;;9.40;7.80;;;4.00;99.90;;;;;;5090092;28;20381;-70
2021/04/26 01:54:11;;;;;;;14.30;8.20;;;4.00;99.90;;;;;;5089971;28;20625;-70
2021/04/26 01:56:38;;;;;;;12.53;8.17;;;4.00;99.90;;;;;;5090021;28;20929;-70
2021/04/26 01:59:04;;;;;;;8.73;7.53;;;4.00;99.90;;;;;;5090305;28;20281;-70
2021/04/26 02:01:31;;;;;;;10.43;7.00;;;4.00;99.90;;;;;;5090554;28;20480;-70
2021/04/26 02:03:59;;;;;;;14.60;7.07;;;4.00;99.90;;;;;;5089807;28;20912;-70
2021/04/26 02:06:25;;;;;;;10.33;6.77;;;3.90;99.90;;;;;;5089662;28;20530;-70
2021/04/26 02:08:51;;;;;;;7.93;6.67;;;3.90;99.90;;;;;;5089707;28;20396;-70
2021/04/26 02:11:17;;;;;;;11.83;7.10;;;3.80;99.90;;;;;;5089847;28;20870;-71
2021/04/26 02:13:44;;;;;;;8.10;7.23;;;3.80;99.90;;;;;;5089948;28;20437;-70
2021/04/26 02:16:09;;;;;;;8.73;6.20;;;3.80;99.90;;;;;;5089683;28;20396;-70
2021/04/26 02:18:35;;;;;;;9.37;7.03;;;3.70;99.90;;;;;;5090191;28;20749;-70
2021/04/26 02:21:01;;;;;;;8.07;6.50;;;3.70;99.90;;;;;;5089530;28;20155;-70
2021/04/26 02:23:29;;;;;;;9.63;7.43;;;3.70;99.90;;;;;;5089508;28;20170;-70
2021/04/26 02:25:55;;;;;;;10.03;7.23;;;3.60;99.90;;;;;;5089593;28;20405;-70
2021/04/26 02:28:20;;;;;;;15.97;8.30;;;3.60;99.90;;;;;;5089642;28;20389;-70
2021/04/26 02:30:47;;;;;;;10.13;6.97;;;3.50;99.90;;;;;;5089589;28;20527;-70
2021/04/26 02:33:15;;;;;;;11.47;6.70;;;3.50;99.90;;;;;;5089117;28;20247;-70
2021/04/26 02:35:49;;;;;;;9.90;7.37;;;3.50;99.90;;;;;;5093984;28;20838;-70
2021/04/26 02:38:22;;;;;;;10.00;7.90;;;3.50;99.90;;;;;;5109618;28;20396;-70
2021/04/26 02:40:52;;;;;;;12.33;6.80;;;3.50;99.90;;;;;;5109881;28;20951;-70
2021/04/26 02:43:19;;;;;;;8.97;7.20;;;3.40;99.90;;;;;;5111087;28;20396;-69
2021/04/26 02:45:52;;;;;;;7.90;7.10;;;3.40;99.90;;;;;;5097215;28;20470;-69
2021/04/26 02:48:20;;;;;;;14.97;6.97;;;3.40;99.90;;;;;;5095972;28;20392;-69
2021/04/26 02:50:47;;;;;;;16.47;8.40;;;3.40;99.90;;;;;;5095746;28;20416;-69
2021/04/26 02:53:14;;;;;;;8.70;6.53;;;3.40;99.90;;;;;;5094779;28;20498;-69
2021/04/26 02:55:41;;;;;;;9.70;7.60;;;3.30;99.90;;;;;;5095697;28;20393;-69
2021/04/26 02:58:07;;;;;;;8.60;7.20;;;3.30;99.90;;;;;;5095617;28;20389;-69
2021/04/26 03:00:33;;;;;;;8.13;7.30;;;3.30;99.90;;;;;;5095604;28;20881;-69
2021/04/26 03:02:59;;;;;;;10.97;8.00;;;3.30;99.90;;;;;;5095369;28;20458;-69
2021/04/26 03:05:26;;;;;;;9.23;6.90;;;3.30;99.90;;;;;;5095473;28;20163;-69
2021/04/26 03:07:52;;;;;;;9.10;7.00;;;3.30;99.90;;;;;;5095477;28;20925;-69
2021/04/26 03:10:18;;;;;;;8.20;7.30;;;3.30;99.90;;;;;;5094469;28;20420;-69
2021/04/26 03:12:49;;;;;;;9.90;6.73;;;3.30;99.90;;;;;;5095914;28;20179;-69
2021/04/26 03:15:18;;;;;;;8.60;7.00;;;3.20;99.90;;;;;;5095275;28;20916;-69
2021/04/26 03:17:44;;;;;;;9.40;7.67;;;3.20;99.90;;;;;;5095452;28;20877;-69
2021/04/26 03:20:13;;;;;;;8.50;6.50;;;3.20;99.90;;;;;;5095124;28;20392;-69
2021/04/26 03:22:40;;;;;;;12.67;7.37;;;3.20;99.90;;;;;;5095326;28;20242;-69
2021/04/26 03:25:07;;;;;;;12.13;7.80;;;3.10;99.90;;;;;;5085795;28;20928;-69
2021/04/26 03:27:33;;;;;;;11.67;6.90;;;3.10;99.90;;;;;;5075789;28;20432;-69
2021/04/26 03:30:00;;;;;;;9.60;6.93;;;3.10;99.90;;;;;;5074802;28;20397;-69
2021/04/26 03:32:27;;;;;;;9.37;7.93;;;3.10;99.90;;;;;;5074968;28;20406;-69
2021/04/26 03:34:53;;;;;;;8.60;7.63;;;3.10;99.90;;;;;;5074802;28;20386;-69
2021/04/26 03:37:19;;;;;;;10.40;6.57;;;3.10;99.90;;;;;;5074605;28;20999;-69
2021/04/26 03:39:45;;;;;;;9.57;7.63;;;3.00;99.90;;;;;;5074749;28;20397;-69
2021/04/26 03:42:14;;;;;;;7.00;6.30;;;3.00;99.90;;;;;;5074946;28;20390;-69
2021/04/26 03:44:44;;;;;;;12.60;7.40;;;3.00;99.90;;;;;;5074862;28;20429;-69
2021/04/26 03:47:09;;;;;;;9.50;6.27;;;3.00;99.90;;;;;;5074470;28;20389;-69
2021/04/26 03:49:35;;;;;;;13.37;6.77;;;3.00;99.90;;;;;;5074426;28;20451;-69
2021/04/26 03:52:01;;;;;;;11.20;7.00;;;3.00;99.90;;;;;;5074477;28;20463;-69
2021/04/26 03:54:26;;;;;;;11.40;6.87;;;2.90;99.90;;;;;;5074317;28;20663;-69
2021/04/26 03:56:52;;;;;;;10.07;7.07;;;2.90;99.90;;;;;;5073690;28;20678;-69
2021/04/26 03:59:18;;;;;;;8.00;6.83;;;2.90;99.90;;;;;;5074515;28;20206;-69
2021/04/26 04:01:44;;;;;;;10.00;7.87;;;2.90;99.90;;;;;;5074854;28;20185;-69
2021/04/26 04:04:09;;;;;;;9.80;7.63;;;2.90;99.90;;;;;;5074142;28;20166;-69
2021/04/26 04:06:35;;;;;;;9.27;7.67;;;2.90;99.90;;;;;;5074161;28;20840;-69
2021/04/26 04:09:03;;;;;;;10.50;7.73;;;2.90;99.90;;;;;;5074746;28;20167;-69
2021/04/26 04:11:29;;;;;;;13.40;8.23;;;2.90;99.90;;;;;;5075163;28;20250;-69
2021/04/26 04:13:54;;;;;;;11.60;7.40;;;3.00;99.90;;;;;;5074172;28;20547;-69
2021/04/26 04:16:20;;;;;;;14.73;7.67;;;2.90;99.90;;;;;;5073962;28;20208;-69
2021/04/26 04:18:46;;;;;;;11.07;7.23;;;2.90;99.90;;;;;;5074495;28;20179;-69
2021/04/26 04:21:12;;;;;;;9.73;8.00;;;2.90;99.90;;;;;;5073860;28;20189;-69
2021/04/26 04:23:38;;;;;;;8.37;6.73;;;2.90;99.90;;;;;;5074266;28;20412;-69
2021/04/26 04:26:03;;;;;;;10.47;7.07;;;2.90;99.90;;;;;;5074836;28;20179;-69
2021/04/26 04:28:30;;;;;;;8.70;7.60;;;2.90;99.90;;;;;;5073741;28;20297;-69
2021/04/26 04:30:56;;;;;;;12.67;8.40;;;2.90;99.90;;;;;;5073984;28;20167;-69
2021/04/26 04:33:22;;;;;;;10.53;7.47;;;2.90;99.90;;;;;;5073562;28;20456;-69
2021/04/26 04:35:47;;;;;;;9.27;8.37;;;2.90;99.90;;;;;;5087869;28;20412;-69
2021/04/26 04:38:13;;;;;;;10.60;7.03;;;2.90;99.90;;;;;;5093948;28;20400;-69
2021/04/26 04:40:38;;;;;;;9.63;7.53;;;2.80;99.90;;;;;;5094648;28;20234;-69
2021/04/26 04:43:04;;;;;;;9.77;7.10;;;2.80;99.90;;;;;;5093757;28;20284;-69
2021/04/26 04:45:29;;;;;;;10.67;7.37;;;2.80;99.90;;;;;;5093623;28;20197;-69
2021/04/26 04:47:56;;;;;;;8.83;7.93;;;2.80;99.90;;;;;;5093541;28;20150;-69
2021/04/26 04:50:22;;;;;;;11.57;8.60;;;2.80;99.90;;;;;;5093556;28;20163;-69
2021/04/26 04:52:47;;;;;;;13.17;8.00;;;2.80;99.90;;;;;;5092735;28;20448;-69
2021/04/26 04:55:15;;;;;;;10.03;7.03;;;2.90;99.90;;;;;;5094074;28;20515;-69
2021/04/26 04:57:41;;;;;;;8.80;7.30;;;2.90;99.90;;;;;;5093741;28;20170;-69
2021/04/26 05:00:07;;;;;;;11.03;7.13;;;2.90;99.90;;;;;;5093556;28;20408;-69
2021/04/26 05:02:33;;;;;;;9.20;7.43;;;2.90;99.90;;;;;;5093514;28;20157;-69
2021/04/26 05:04:58;;;;;;;12.40;7.70;;;2.90;99.90;;;;;;5094043;28;20391;-69
2021/04/26 05:07:24;;;;;;;14.47;7.93;;;2.90;99.90;;;;;;5093925;28;20279;-69
2021/04/26 05:09:50;;;;;;;12.10;8.53;;;2.90;99.90;;;;;;5093050;28;20171;-69
2021/04/26 05:12:15;;;;;;;13.20;7.93;;;3.00;99.90;;;;;;5093276;28;20154;-69
2021/04/26 05:14:42;;;;;;;13.37;8.40;;;3.00;99.90;;;;;;5093367;28;20150;-69
2021/04/26 05:17:08;;;;;;;12.53;8.63;;;3.00;99.90;;;;;;5093362;28;20154;-69
2021/04/26 05:19:34;;;;;;;10.93;7.60;;;3.00;99.90;;;;;;5096390;28;20542;-69
2021/04/26 05:22:01;;;;;;;11.40;7.63;;;3.10;99.90;;;;;;5093909;28;20143;-69
2021/04/26 05:24:26;;;;;;;10.70;8.90;;;3.10;99.90;;;;;;5089902;28;20171;-69
2021/04/26 05:26:52;;;;;;;13.10;8.40;;;3.10;99.90;;;;;;5073611;28;20416;-69
2021/04/26 05:29:17;;;;;;;11.53;8.67;;;3.20;99.90;;;;;;5073114;28;20163;-69
2021/04/26 05:31:43;;;;;;;9.40;8.10;;;3.20;99.90;;;;;;5072982;28;20705;-69
2021/04/26 05:34:09;;;;;;;12.23;8.30;;;3.30;99.90;;;;;;5075578;28;20202;-69
2021/04/26 05:36:34;;;;;;;14.13;9.20;;;3.30;99.90;;;;;;5073397;28;20160;-70
2021/04/26 05:39:00;;;;;;;14.43;7.90;;;3.40;99.90;;;;;;5073504;28;20636;-69
2021/04/26 05:41:26;;;;;;;12.40;8.37;;;3.50;99.90;;;;;;5072989;28;20223;-69
2021/04/26 05:43:51;;;;;;;10.70;8.17;;;3.60;99.90;;;;;;5073628;28;20608;-69
2021/04/26 05:46:17;;;;;;;16.00;8.33;;;3.60;99.90;;;;;;5072740;28;20433;-69
2021/04/26 05:48:43;;;;;;;13.10;8.80;;;3.70;99.90;;;;;;5073366;28;20163;-69
2021/04/26 05:51:08;;;;;;;10.90;8.73;;;3.80;99.90;;;;;;5073054;28;20174;-69
2021/04/26 05:53:34;;;;;;;10.47;7.97;;;3.90;99.90;;;;;;5073011;28;20252;-69
2021/04/26 05:56:01;;;;;;;11.80;7.80;;;3.90;99.90;;;;;;5072631;28;20166;-69
2021/04/26 05:58:29;;;;;;;11.53;8.20;;;4.10;99.90;;;;;;5072605;28;20191;-69
2021/04/26 06:00:55;;;;;;;8.53;6.80;;;4.10;99.90;;;;;;5073307;28;20999;-69
2021/04/26 06:03:21;;;;;;;10.30;8.67;;;4.20;99.90;;;;;;5073061;28;20473;-69
2021/04/26 06:05:46;;;;;;;11.90;8.60;;;4.30;99.90;;;;;;5072889;28;20632;-69
2021/04/26 06:08:13;;;;;;;17.00;8.20;;;4.40;99.90;;;;;;5073149;28;20170;-69
2021/04/26 06:10:38;;;;;;;9.30;7.63;;;4.40;99.90;;;;;;5072483;28;20225;-69
2021/04/26 06:13:04;;;;;;;10.37;8.33;;;4.50;99.90;;;;;;5072568;28;20441;-69
2021/04/26 06:15:29;;;;;;;12.43;7.90;;;4.60;99.90;;;;;;5072975;28;20664;-69
2021/04/26 06:18:13;;;;;;;15.10;9.00;;;4.70;99.90;;;;;;5073257;28;20211;-69
2021/04/26 06:20:40;;;;;;;9.37;8.07;;;4.80;99.90;;;;;;5075269;28;20217;-69
2021/04/26 06:23:06;;;;;;;17.30;8.30;;;4.90;99.90;;;;;;5076572;28;20390;-69
2021/04/26 06:25:33;;;;;;;11.90;8.10;;;5.00;99.90;;;;;;5076273;28;20463;-69
2021/04/26 06:27:59;;;;;;;16.73;9.27;;;5.00;99.90;;;;;;5076066;28;20159;-69
2021/04/26 06:30:26;;;;;;;10.27;8.00;;;5.10;99.90;;;;;;5076263;28;20395;-69
2021/04/26 06:32:52;;;;;;;10.77;9.27;;;5.20;99.90;;;;;;5077897;28;20460;-69
2021/04/26 06:35:17;;;;;;;11.90;6.73;;;5.30;99.90;;;;;;5076641;28;20426;-70
2021/04/26 06:37:43;;;;;;;7.17;6.50;;;5.50;99.90;;;;;;5075426;28;20646;-69
2021/04/26 06:40:09;;;;;;;10.83;7.73;;;5.60;99.90;;;;;;5075878;28;20617;-69
2021/04/26 06:42:34;;;;;;;14.53;7.10;;;5.70;99.90;;;;;;5075636;28;20165;-69
2021/04/26 06:45:01;;;;;;;9.90;7.03;;;5.80;99.90;;;;;;5076063;28;21009;-69
2021/04/26 06:47:27;;;;;;;10.03;7.10;;;5.90;99.90;;;;;;5076028;28;20154;-69
2021/04/26 06:49:52;;;;;;;7.97;6.07;;;6.00;99.90;;;;;;5077002;28;20881;-70
2021/04/26 06:52:18;;;;;;;7.83;6.37;;;6.10;99.90;;;;;;5076412;28;20178;-69
2021/04/26 06:54:43;;;;;;;9.80;5.20;;;6.30;99.90;;;;;;5075589;28;20159;-69
2021/04/26 06:57:09;;;;;;;8.40;5.50;;;6.40;99.90;;;;;;5075504;28;20175;-69
2021/04/26 06:59:35;;;;;;;6.67;5.37;;;6.50;98.40;;;;;;5075755;28;20192;-69
2021/04/26 07:02:00;;;;;;;7.10;3.63;;;6.70;97.70;;;;;;5075604;28;20236;-69
2021/04/26 07:04:26;;;;;;;8.67;5.27;;;6.80;96.00;;;;;;5076284;28;20211;-69
2021/04/26 07:06:52;;;;;;;4.80;3.63;;;7.00;93.90;;;;;;5075393;28;20214;-69
2021/04/26 07:09:17;;;;;;;5.30;4.07;;;7.10;92.10;;;;;;5075791;28;20797;-69
2021/04/26 07:11:45;;;;;;;4.40;3.73;;;7.20;91.90;;;;;;5075445;28;20622;-69
2021/04/26 07:14:11;;;;;;;3.07;2.77;;;7.40;90.30;;;;;;5075227;28;20286;-69
2021/04/26 07:16:36;;;;;;;3.33;2.23;;;7.60;81.10;;;;;;5074994;28;20479;-69
2021/04/26 07:19:03;;;;;;;2.73;2.33;;;7.80;76.70;;;;;;5076003;28;20182;-69
2021/04/26 07:21:29;;;;;;;3.40;2.00;;;8.10;72.30;;;;;;5074994;28;20174;-69
2021/04/26 07:23:55;;;;;;;2.70;1.67;;;8.40;65.70;;;;;;5075095;28;20404;-69
2021/04/26 07:26:24;;;;;;;2.37;1.30;;;8.60;61.30;;;;;;5094156;28;20415;-69
2021/04/26 07:28:49;;;;;;;4.97;2.00;;;8.80;59.80;;;;;;5095437;28;20542;-69
2021/04/26 07:31:17;;;;;;;2.50;1.50;;;8.90;57.70;;;;;;5095097;28;20400;-69
2021/04/26 07:33:44;;;;;;;2.80;1.77;;;9.20;56.30;;;;;;5096600;28;20205;-69
2021/04/26 07:36:12;;;;;;;2.20;1.73;;;9.40;55.70;;;;;;5095370;28;20408;-69
2021/04/26 07:38:41;;;;;;;1.50;1.40;;;9.50;55.70;;;;;;5095151;28;20397;-69
2021/04/26 07:41:07;;;;;;;2.77;1.70;;;9.70;55.60;;;;;;5094184;28;20478;-69
2021/04/26 07:43:33;;;;;;;2.10;1.70;;;10.60;52.50;;;;;;5094736;28;20411;-69
2021/04/26 07:45:59;;;;;;;2.80;1.80;;;11.70;49.50;;;;;;5095140;28;20596;-69
2021/04/26 07:48:27;;;;;;;2.60;1.60;;;13.00;47.10;;;;;;5097118;28;20200;-70
2021/04/26 07:50:53;;;;;;;1.80;1.60;;;14.30;44.40;;;;;;5094745;28;20444;-69
2021/04/26 07:53:19;;;;;;;3.23;2.13;;;15.70;42.30;;;;;;5094887;28;20836;-69
2021/04/26 07:55:47;;;;;;;2.67;1.57;;;16.60;39.10;;;;;;5094888;28;20152;-69
2021/04/26 07:58:14;;;;;;;2.67;1.67;;;17.30;36.60;;;;;;5093821;28;20926;-69
2021/04/26 08:00:39;;;;;;;1.97;1.50;;;18.00;35.20;;;;;;5095016;28;20401;-69
2021/04/26 08:03:05;;;;;;;5.97;2.00;;;18.50;34.40;;;;;;5095614;28;20393;-69
2021/04/26 08:05:31;;;;;;;3.77;1.67;;;19.10;33.70;;;;;;5094599;28;20162;-69
2021/04/26 08:07:57;;;;;;;1.93;1.83;;;19.80;32.80;;;;;;5094684;28;20630;-69
2021/04/26 08:10:23;;;;;;;1.90;1.50;;;19.30;31.90;;;;;;5094662;28;20386;-69
2021/04/26 08:12:48;;;;;;;2.70;1.90;;;19.80;32.30;;;;;;5094486;28;20187;-69
2021/04/26 08:15:15;;;;;;;3.33;1.60;;;20.10;30.90;;;;;;5093500;28;20166;-69
2021/04/26 08:17:41;;;;;;;2.63;1.93;;;20.50;30.60;;;;;;5094622;28;20232;-69
2021/04/26 08:20:08;;;;;;;2.00;1.40;;;20.70;30.40;;;;;;5094358;28;20729;-69
2021/04/26 08:22:34;;;;;;;3.77;2.30;;;21.00;29.70;;;;;;5094287;28;20194;-69
2021/04/26 08:25:00;;;;;;;2.40;1.87;;;21.60;29.40;;;;;;5085686;28;20515;-69
2021/04/26 08:27:25;;;;;;;4.53;1.60;;;22.10;28.40;;;;;;5073919;28;20397;-69
2021/04/26 08:29:51;;;;;;;4.57;1.70;;;22.80;28.00;;;;;;5073939;28;20617;-69
2021/04/26 08:32:16;;;;;;;2.60;1.50;;;23.40;27.00;;;;;;5074633;28;20166;-69
2021/04/26 08:34:42;;;;;;;1.53;1.37;;;23.00;26.90;;;;;;5073590;28;20547;-69
2021/04/26 08:37:07;;;;;;;3.60;1.60;;;22.30;27.40;;;;;;5073537;28;20262;-69
2021/04/26 08:39:33;;;;;;;2.27;1.60;;;21.10;28.10;;;;;;5073633;28;20209;-69
2021/04/26 08:41:59;;;;;;;2.10;1.60;;;19.70;29.20;;;;;;5073177;28;20503;-69
2021/04/26 08:44:24;;;;;;;1.80;1.70;;;18.50;30.40;;;;;;5073607;28;20165;-69
2021/04/26 08:46:50;;;;;;;2.27;1.87;;;17.50;31.90;;;;;;5073839;28;20174;-69
2021/04/26 08:49:18;;;;;;;4.83;1.80;;;16.60;33.20;;;;;;5074072;28;20186;-69
2021/04/26 08:51:44;;;;;;;5.10;1.80;;;15.80;34.00;;;;;;5073448;28;20253;-69
2021/04/26 08:54:13;;;;;;;2.53;1.90;;;15.30;35.00;;;;;;5073246;28;20487;-69
2021/04/26 08:56:39;;;;;;;2.00;1.73;;;14.80;35.60;;;;;;5073414;28;20434;-69
2021/04/26 08:59:04;;;;;;;4.00;2.07;;;14.60;36.80;;;;;;5073567;28;20423;-69
2021/04/26 09:01:30;;;;;;;2.80;1.93;;;14.30;36.60;;;;;;5073426;28;20163;-68
2021/04/26 09:04:12;;;;;;;4.50;2.20;;;14.20;36.70;;;;;;5073378;28;20621;-68
2021/04/26 09:06:59;;;;;;;4.47;2.03;;;14.10;36.50;;;;;;5073730;28;20304;-69
2021/04/26 09:09:35;;;;;;;4.10;2.07;;;13.90;37.10;;;;;;5072302;28;20432;-69
2021/04/26 09:12:00;;;;;;;2.97;1.90;;;14.10;37.60;;;;;;5073198;28;20411;-69
2021/04/26 09:14:34;;;;;;;5.23;2.03;;;14.70;36.60;;;;;;5073483;28;20540;-69
2021/04/26 09:17:40;;;;;;;3.73;2.10;;;15.30;36.50;;;;;;5073186;28;20280;-69
2021/04/26 09:20:23;;;;;;;3.73;2.00;;;16.20;35.20;;;;;;5072157;28;20401;-69
2021/04/26 09:33:27;;;;;;;3.20;1.70;;;16.90;33.40;;;;;;5111119;27;20506;-69
2021/04/26 09:36:23;;;;;;;3.87;1.90;;;17.60;32.10;;;;;;5110964;28;20399;-69
2021/04/26 09:38:50;;;;;;;5.20;2.50;;;17.60;32.70;;;;;;5097378;28;20376;-69
2021/04/26 09:49:25;;;;;;;3.00;2.33;;;17.50;33.10;;;;;;5111035;27;20553;-69
2021/04/26 09:51:54;;;;;;;3.77;2.30;;;18.20;32.70;;;;;;5110927;28;20824;-69
2021/04/26 09:54:40;;;;;;;2.10;1.90;;;18.50;31.70;;;;;;5111188;28;20754;-69
2021/04/26 09:57:07;;;;;;;2.30;2.10;;;18.70;31.40;;;;;;5109521;28;20478;-69
2021/04/26 09:59:32;;;;;;;2.87;2.10;;;18.20;31.10;;;;;;5090644;28;20835;-69
2021/04/26 10:01:59;;;;;;;3.03;2.20;;;17.70;31.90;;;;;;5090358;28;20397;-68
2021/04/26 10:04:26;;;;;;;5.47;2.47;;;17.50;32.80;;;;;;5090335;28;20642;-69
2021/04/26 10:06:52;;;;;;;4.23;2.83;;;17.50;32.70;;;;;;5090355;28;20390;-69
2021/04/26 10:09:19;;;;;;;2.50;2.20;;;17.40;32.90;;;;;;5090256;28;20532;-69
2021/04/26 10:11:44;;;;;;;4.27;2.30;;;17.30;33.00;;;;;;5090548;28;20794;-69
2021/04/26 10:14:14;;;;;;;2.80;2.60;;;17.00;33.20;;;;;;5091060;28;20428;-69
2021/04/26 10:19:43;;;;;;;3.37;2.13;;;16.80;33.40;;;;;;5131470;27;20519;-68
2021/04/26 10:22:11;;;;;;;3.20;2.53;;;16.20;34.10;;;;;;5131410;28;20415;-68
2021/04/26 10:24:50;;;;;;;4.17;2.87;;;15.90;33.90;;;;;;5131383;28;20459;-68
2021/04/26 10:27:29;;;;;;;6.77;2.70;;;15.60;34.00;;;;;;5131881;28;20389;-68
2021/04/26 10:30:00;;;;;;;4.00;2.73;;;15.30;34.30;;;;;;5131323;28;20394;-68
2021/04/26 10:32:26;;;;;;;4.00;2.70;;;15.00;35.60;;;;;;5130664;28;20427;-68
2021/04/26 10:37:30;;;;;;;3.67;2.80;;;14.70;36.00;;;;;;5090573;28;20555;-69
2021/04/26 10:50:43;;;;;;;3.33;3.03;;;14.30;36.40;;;;;;5152277;27;20506;-69
2021/04/26 10:53:10;;;;;;;4.33;2.97;;;13.70;37.90;;;;;;5152061;27;20415;-69
2021/04/26 10:55:41;;;;;;;3.23;2.33;;;13.50;38.00;;;;;;5153157;27;20803;-69
2021/04/26 10:58:27;;;;;;;4.77;2.87;;;13.40;38.70;;;;;;5152315;27;20383;-69
2021/04/26 11:00:53;;;;;;;3.97;3.03;;;13.30;39.00;;;;;;5152000;27;20465;-69
2021/04/26 11:05:54;;;;;;;7.23;3.30;;;13.20;38.80;;;;;;5032216;27;20532;-67
2021/04/26 11:11:27;;;;;;;3.37;2.77;;;13.00;38.60;;;;;;5092143;28;20502;-69
2021/04/26 11:16:37;;;;;;;4.00;3.17;;;12.80;39.40;;;;;;5090686;27;20572;-68
2021/04/26 11:19:09;;;;;;;4.57;3.03;;;12.70;39.00;;;;;;5090578;28;20419;-68
2021/04/26 11:21:52;;;;;;;4.83;3.27;;;12.60;38.80;;;;;;5090633;28;20388;-68
2021/04/26 11:32:22;;;;;;;5.07;2.77;;;12.50;38.80;;;;;;5090810;27;20505;-69
2021/04/26 11:40:23;;;;;;;3.93;2.63;;;12.40;39.60;;;;;;5124221;27;20946;-69
2021/04/26 11:42:49;;;;;;;3.07;2.60;;;12.40;39.40;;;;;;5110852;28;20902;-69
2021/04/26 11:45:20;;;;;;;4.20;2.90;;;12.40;38.70;;;;;;5110769;27;20412;-69
2021/04/26 11:47:47;;;;;;;5.83;3.27;;;12.50;38.50;;;;;;5110951;28;20446;-69
2021/04/26 11:50:13;;;;;;;4.90;3.60;;;12.40;38.40;;;;;;5111051;28;20743;-67
2021/04/26 11:52:38;;;;;;;3.50;2.90;;;12.30;38.40;;;;;;5112315;28;20445;-67
2021/04/26 12:03:03;;;;;;;3.60;2.87;;;12.50;38.80;;;;;;5131625;27;20568;-69
2021/04/26 12:05:28;;;;;;;5.23;2.70;;;12.50;37.40;;;;;;5132034;28;20385;-67
2021/04/26 12:07:56;;;;;;;3.50;3.20;;;12.50;36.50;;;;;;5132381;28;20792;-67
2021/04/26 12:10:25;;;;;;;3.07;2.80;;;12.50;37.10;;;;;;5131437;28;20203;-67
2021/04/26 12:13:02;;;;;;;3.67;3.07;;;12.40;36.50;;;;;;5131374;28;20386;-67
2021/04/26 12:15:28;;;;;;;3.33;3.03;;;12.50;36.50;;;;;;5111276;28;20395;-67
2021/04/26 12:17:56;;;;;;;3.00;2.80;;;12.50;36.60;;;;;;5110654;28;20480;-67
2021/04/26 12:22:59;;;;;;;5.47;3.30;;;12.50;37.00;;;;;;5132222;27;20565;-69
2021/04/26 12:25:27;;;;;;;4.77;4.37;;;12.40;38.50;;;;;;5131327;28;20438;-68
2021/04/26 12:28:03;;;;;;;3.90;3.10;;;12.50;39.80;;;;;;5131713;28;20399;-68
2021/04/26 12:30:34;;;;;;;4.03;3.60;;;12.50;39.70;;;;;;5128025;28;20414;-68
2021/04/26 12:32:59;;;;;;;5.93;3.47;;;12.50;40.90;;;;;;5111518;28;20765;-69
2021/04/26 12:35:29;;;;;;;4.77;3.10;;;12.50;40.20;;;;;;5110971;28;20384;-68
2021/04/26 12:37:56;;;;;;;4.40;2.80;;;12.40;40.70;;;;;;5110885;28;20566;-69
2021/04/26 12:40:33;;;;;;;4.03;3.67;;;12.40;40.90;;;;;;5110642;28;20391;-69
2021/04/26 12:45:46;;;;;;;5.80;3.80;;;12.40;41.00;;;;;;5090582;28;20921;-68
2021/04/26 12:50:50;;;;;;;7.47;4.63;;;12.50;41.60;;;;;;5111689;27;20506;-69
2021/04/26 12:58:29;;;;;;;6.50;3.83;;;12.50;41.50;;;;;;5090266;27;20530;-69
2021/04/26 13:00:57;;;;;;;5.33;4.20;;;12.60;40.80;;;;;;5090828;28;20402;-68
2021/04/26 13:08:42;;;;;;;3.93;3.43;;;12.50;40.50;;;;;;5090714;28;20507;-69
2021/04/26 13:11:11;;;;;;;5.73;3.90;;;12.60;40.90;;;;;;5090634;28;20400;-69
2021/04/26 13:13:55;;;;;;;4.57;3.50;;;12.50;40.80;;;;;;5090493;28;20798;-69
2021/04/26 13:16:22;;;;;;;4.13;3.13;;;12.50;41.10;;;;;;5090652;28;20385;-69
2021/04/26 13:18:50;;;;;;;4.90;3.43;;;12.40;41.00;;;;;;5091215;28;20389;-70
2021/04/26 13:21:17;;;;;;;5.47;3.60;;;12.40;40.90;;;;;;5089406;28;20935;-69
2021/04/26 13:23:43;;;;;;;6.00;4.33;;;12.50;41.20;;;;;;5075781;28;20416;-69
2021/04/26 13:26:30;;;;;;;4.00;3.70;;;12.50;41.50;;;;;;5090452;28;20397;-69
2021/04/26 13:31:46;;;;;;;5.20;3.90;;;12.40;40.90;;;;;;5111113;27;20514;-68
2021/04/26 13:34:13;;;;;;;7.53;4.03;;;12.40;41.10;;;;;;5111620;28;20463;-69
2021/04/26 13:36:39;;;;;;;5.20;3.57;;;12.40;41.30;;;;;;5110885;28;20386;-69
2021/04/26 13:39:06;;;;;;;3.87;3.57;;;12.40;41.10;;;;;;5102255;28;20392;-68
2021/04/26 13:41:32;;;;;;;6.30;3.57;;;12.40;40.20;;;;;;5090469;28;20166;-68
2021/04/26 13:43:57;;;;;;;4.53;4.13;;;12.30;40.70;;;;;;5090699;28;20794;-68
2021/04/26 13:46:23;;;;;;;4.70;4.30;;;12.40;40.80;;;;;;5090664;28;20151;-69
2021/04/26 13:48:48;;;;;;;6.90;3.70;;;12.40;41.20;;;;;;5091512;28;20157;-69
2021/04/26 13:51:14;;;;;;;10.60;4.10;;;12.30;41.30;;;;;;5090205;28;20186;-69
2021/04/26 13:53:40;;;;;;;6.80;4.10;;;12.30;41.10;;;;;;5090308;28;20162;-69
2021/04/26 13:56:07;;;;;;;4.80;4.40;;;12.30;40.70;;;;;;5090738;28;20173;-69
2021/04/26 13:58:34;;;;;;;5.40;4.40;;;12.30;40.50;;;;;;5090166;28;20183;-68
2021/04/26 14:00:59;;;;;;;4.50;3.53;;;12.40;40.40;;;;;;5090358;28;20477;-69
2021/04/26 14:03:25;;;;;;;6.43;3.70;;;12.30;40.30;;;;;;5091017;28;20808;-68
2021/04/26 14:05:51;;;;;;;4.43;3.83;;;12.30;40.20;;;;;;5089814;28;20155;-69
2021/04/26 14:08:16;;;;;;;4.67;4.23;;;12.30;40.70;;;;;;5089951;28;20155;-68
2021/04/26 14:10:42;;;;;;;4.10;3.70;;;12.30;40.70;;;;;;5089852;28;20183;-69
2021/04/26 14:13:07;;;;;;;7.63;5.40;;;12.30;39.90;;;;;;5090176;28;20182;-68
2021/04/26 14:15:33;;;;;;;5.40;4.10;;;12.30;39.90;;;;;;5089885;28;20238;-69
2021/04/26 14:17:58;;;;;;;4.80;3.97;;;12.30;40.10;;;;;;5090174;28;20162;-69
2021/04/26 14:20:24;;;;;;;6.90;4.07;;;12.40;40.20;;;;;;5089645;28;20182;-68
2021/04/26 14:22:50;;;;;;;4.27;3.87;;;12.30;40.20;;;;;;5089645;28;20155;-69
2021/04/26 14:25:15;;;;;;;4.80;3.70;;;12.30;39.90;;;;;;5089575;28;20227;-68
2021/04/26 14:27:41;;;;;;;5.27;4.37;;;12.20;39.80;;;;;;5089887;28;20175;-68
2021/04/26 14:30:09;;;;;;;6.70;4.40;;;12.20;40.40;;;;;;5098319;28;20214;-69
2021/04/26 14:32:35;;;;;;;5.10;4.57;;;12.20;40.10;;;;;;5110479;28;20535;-69